createdAt,value
2022-10-04T00:00:22.574Z,92.6
2022-10-04T00:01:25.769Z,92.5
2022-10-04T00:02:28.570Z,92.1
2022-10-04T00:03:31.759Z,92
2022-10-04T00:04:35.094Z,91.8
2022-10-04T00:05:37.887Z,91.9
2022-10-04T00:06:40.993Z,92.1
2022-10-04T00:07:43.975Z,92.2
2022-10-04T00:08:47.055Z,92.3
2022-10-04T00:09:49.665Z,92
2022-10-04T00:10:52.674Z,91.5
2022-10-04T00:11:55.627Z,91.7
2022-10-04T00:12:59.345Z,91.8
2022-10-04T00:14:02.196Z,92
2022-10-04T00:15:05.684Z,92.2
2022-10-04T00:16:08.960Z,92.1
2022-10-04T00:17:12.410Z,92.3
2022-10-04T00:18:15.832Z,92.3
2022-10-04T00:19:18.710Z,92.1
2022-10-04T00:20:21.918Z,92.3
2022-10-04T00:21:25.573Z,92.4
2022-10-04T00:22:28.846Z,92.4
2022-10-04T00:23:32.219Z,92.5
2022-10-04T00:24:34.745Z,92.5
2022-10-04T00:25:37.540Z,92.5
2022-10-04T00:26:40.071Z,92.4
2022-10-04T00:27:43.144Z,92
2022-10-04T00:28:46.333Z,92
2022-10-04T00:29:49.815Z,92.1
2022-10-04T00:30:53.377Z,91.9
2022-10-04T00:31:56.356Z,91.8
2022-10-04T00:32:58.983Z,92.1
2022-10-04T00:34:02.142Z,92.3
2022-10-04T00:35:05.198Z,92.3
2022-10-04T00:36:08.619Z,92.3
2022-10-04T00:37:11.147Z,92.4
2022-10-04T00:38:14.565Z,92.4
2022-10-04T00:39:17.908Z,92.4
2022-10-04T00:40:21.273Z,92.3
2022-10-04T00:41:23.877Z,92.3
2022-10-04T00:42:26.130Z,92.4
2022-10-04T00:43:29.577Z,92.3
2022-10-04T00:44:33.374Z,92.1
2022-10-04T00:45:36.476Z,92
2022-10-04T00:46:40.012Z,91.9
2022-10-04T00:47:42.996Z,92
2022-10-04T00:48:46.114Z,92.3
2022-10-04T00:49:49.615Z,92.6
2022-10-04T00:50:52.434Z,92.6
2022-10-04T00:51:55.330Z,92.5
2022-10-04T00:52:58.201Z,92.3
2022-10-04T00:54:01.069Z,92.5
2022-10-04T00:55:03.505Z,92.7
2022-10-04T00:56:06.592Z,92.8
2022-10-04T00:57:10.217Z,92.7
2022-10-04T00:58:13.701Z,92.7
2022-10-04T00:59:15.938Z,92.7
2022-10-04T01:00:18.949Z,92.8
2022-10-04T01:01:21.902Z,92.8
2022-10-04T01:02:25.915Z,92.9
2022-10-04T01:03:29.682Z,92.8
2022-10-04T01:04:32.491Z,92.8
2022-10-04T01:05:36.226Z,93
2022-10-04T01:06:39.519Z,93.1
2022-10-04T01:07:42.867Z,93
2022-10-04T01:08:45.121Z,93.1
2022-10-04T01:09:48.200Z,93.2
2022-10-04T01:10:51.552Z,93
2022-10-04T01:11:53.985Z,92.7
2022-10-04T01:12:56.222Z,92.5
2022-10-04T01:13:59.952Z,92.2
2022-10-04T01:15:02.955Z,92.4
2022-10-04T01:16:06.839Z,92.6
2022-10-04T01:17:09.425Z,92.8
2022-10-04T01:18:13.207Z,92.7
2022-10-04T01:19:15.989Z,92.7
2022-10-04T01:20:19.091Z,92.9
2022-10-04T01:21:21.691Z,92.9
2022-10-04T01:22:24.816Z,93.2
2022-10-04T01:23:27.884Z,93.2
2022-10-04T01:24:30.768Z,93.3
2022-10-04T01:25:33.484Z,93.1
2022-10-04T01:26:35.667Z,93.1
2022-10-04T01:27:38.927Z,93
2022-10-04T01:28:42.631Z,92.7
2022-10-04T01:29:45.442Z,92.7
2022-10-04T01:30:48.236Z,92.7
2022-10-04T01:31:51.523Z,92.8
2022-10-04T01:32:55.233Z,92.7
2022-10-04T01:33:58.671Z,92.5
2022-10-04T01:35:00.909Z,92.6
2022-10-04T01:36:04.397Z,92.9
2022-10-04T01:37:07.276Z,93
2022-10-04T01:38:10.319Z,93
2022-10-04T01:39:13.535Z,93
2022-10-04T01:40:16.688Z,92.9
2022-10-04T01:41:20.142Z,93.1
2022-10-04T01:42:23.317Z,93.1
2022-10-04T01:43:25.525Z,93.1
2022-10-04T01:44:28.407Z,93
2022-10-04T01:45:31.516Z,93.1
2022-10-04T01:46:35.255Z,93.1
2022-10-04T01:47:38.815Z,93.1
2022-10-04T01:48:41.697Z,93
2022-10-04T01:49:45.090Z,93
2022-10-04T01:50:47.926Z,92.9
2022-10-04T01:51:51.252Z,92.7
2022-10-04T01:52:53.874Z,92.9
2022-10-04T01:53:57.091Z,92.8
2022-10-04T01:55:00.533Z,92.7
2022-10-04T01:56:02.972Z,92.6
2022-10-04T01:57:05.759Z,92.4
2022-10-04T01:58:08.906Z,92.8
2022-10-04T01:59:11.702Z,92.9
2022-10-04T02:00:15.127Z,92.9
2022-10-04T02:01:18.380Z,92.8
2022-10-04T02:02:21.497Z,92.9
2022-10-04T02:03:24.749Z,93
2022-10-04T02:04:27.951Z,92.9
2022-10-04T02:05:31.272Z,92.9
2022-10-04T02:06:34.074Z,92.9
2022-10-04T02:07:36.980Z,92.9
2022-10-04T02:08:39.846Z,93.2
2022-10-04T02:09:42.691Z,93
2022-10-04T02:10:45.288Z,92.7
2022-10-04T02:11:48.564Z,92.8
2022-10-04T02:12:52.065Z,92.8
2022-10-04T02:13:55.172Z,92.6
2022-10-04T02:14:58.622Z,92.6
2022-10-04T02:16:01.526Z,92.5
2022-10-04T02:17:04.362Z,92.5
2022-10-04T02:18:07.507Z,92.6
2022-10-04T02:19:10.653Z,92.7
2022-10-04T02:20:13.520Z,92.4
2022-10-04T02:21:16.979Z,92.5
2022-10-04T02:22:19.323Z,92.4
2022-10-04T02:23:22.330Z,92.5
2022-10-04T02:24:25.751Z,92.6
2022-10-04T02:25:28.587Z,92.2
2022-10-04T02:26:31.936Z,91.9
2022-10-04T02:27:35.285Z,92
2022-10-04T02:28:38.359Z,92.4
2022-10-04T02:29:41.449Z,92.4
2022-10-04T02:30:43.885Z,92.3
2022-10-04T02:31:47.861Z,92.2
2022-10-04T02:32:51.107Z,92.2
2022-10-04T02:33:54.753Z,92
2022-10-04T02:34:58.213Z,91.8
2022-10-04T02:36:01.077Z,91.9
2022-10-04T02:37:04.570Z,91.9
2022-10-04T02:38:07.924Z,92
2022-10-04T02:39:11.016Z,92
2022-10-04T02:40:14.670Z,91.9
2022-10-04T02:41:17.591Z,92
2022-10-04T02:42:21.009Z,92.3
2022-10-04T02:43:23.250Z,92.2
2022-10-04T02:44:25.829Z,92.4
2022-10-04T02:45:29.062Z,92.5
2022-10-04T02:46:32.542Z,92.4
2022-10-04T02:47:36.068Z,92.2
2022-10-04T02:48:38.949Z,92.3
2022-10-04T02:49:41.753Z,92.4
2022-10-04T02:50:44.080Z,92.3
2022-10-04T02:51:46.396Z,92.3
2022-10-04T02:52:49.884Z,92.2
2022-10-04T02:53:52.403Z,92
2022-10-04T02:54:55.853Z,92
2022-10-04T02:55:58.738Z,91.9
2022-10-04T02:57:01.757Z,91.8
2022-10-04T02:58:05.462Z,91.9
2022-10-04T02:59:09.187Z,92
2022-10-04T03:00:12.170Z,91.8
2022-10-04T03:01:15.601Z,91.9
2022-10-04T03:02:30.788Z,92
2022-10-04T03:03:34.098Z,92.2
2022-10-04T03:04:36.839Z,92.3
2022-10-04T03:05:40.559Z,92.4
2022-10-04T03:06:43.427Z,92.3
2022-10-04T03:07:46.873Z,92.4
2022-10-04T03:08:50.082Z,92.5
2022-10-04T03:09:52.953Z,92.5
2022-10-04T03:10:55.779Z,92.6
2022-10-04T03:11:58.947Z,92.8
2022-10-04T03:13:02.425Z,92.8
2022-10-04T03:14:05.637Z,92.9
2022-10-04T03:15:08.304Z,92.9
2022-10-04T03:16:11.474Z,92.7
2022-10-04T03:17:14.825Z,92.6
2022-10-04T03:18:17.281Z,92.7
2022-10-04T03:19:20.349Z,92.5
2022-10-04T03:20:23.700Z,92.5
2022-10-04T03:21:26.501Z,92.4
2022-10-04T03:22:30.008Z,92.4
2022-10-04T03:23:32.928Z,92.1
2022-10-04T03:24:36.422Z,92
2022-10-04T03:25:39.574Z,91.9
2022-10-04T03:26:42.573Z,91.9
2022-10-04T03:27:45.177Z,91.7
2022-10-04T03:28:47.661Z,91.6
2022-10-04T03:29:52.723Z,92
2022-10-04T03:31:02.220Z,92.3
2022-10-04T03:32:05.158Z,92.3
2022-10-04T03:33:08.345Z,92.4
2022-10-04T03:34:11.564Z,92.3
2022-10-04T03:35:14.441Z,92.2
2022-10-04T03:36:16.973Z,92.1
2022-10-04T03:37:19.212Z,92.1
2022-10-04T03:38:22.394Z,92
2022-10-04T03:39:25.857Z,92
2022-10-04T03:40:29.885Z,91.9
2022-10-04T03:41:33.039Z,91.7
2022-10-04T03:42:36.141Z,91.8
2022-10-04T03:43:39.136Z,92.1
2022-10-04T03:44:42.177Z,92.1
2022-10-04T03:45:45.937Z,92
2022-10-04T03:46:48.652Z,92.1
2022-10-04T03:47:52.381Z,92.2
2022-10-04T03:48:55.742Z,91.9
2022-10-04T03:49:58.328Z,92.1
2022-10-04T03:51:01.793Z,92
2022-10-04T03:52:04.797Z,92
2022-10-04T03:53:07.186Z,92.1
2022-10-04T03:54:10.302Z,92.2
2022-10-04T03:55:13.178Z,92.5
2022-10-04T03:56:16.646Z,92.7
2022-10-04T03:57:18.950Z,93.1
2022-10-04T03:58:21.772Z,93.2
2022-10-04T03:59:25.392Z,93.3
2022-10-04T04:00:28.310Z,93.2
2022-10-04T04:01:31.958Z,93
2022-10-04T04:02:35.333Z,92.6
2022-10-04T04:03:38.572Z,92.5
2022-10-04T04:04:41.659Z,92.3
2022-10-04T04:05:44.552Z,92.5
2022-10-04T04:06:47.620Z,92.8
2022-10-04T04:07:51.076Z,92.8
2022-10-04T04:08:54.023Z,92.8
2022-10-04T04:09:57.483Z,92.4
2022-10-04T04:11:00.478Z,92.2
2022-10-04T04:12:04.151Z,91.9
2022-10-04T04:13:07.035Z,91.9
2022-10-04T04:14:10.134Z,91.8
2022-10-04T04:15:13.142Z,91.9
2022-10-04T04:16:17.231Z,91.8
2022-10-04T04:17:20.953Z,91.5
2022-10-04T04:18:24.296Z,91.5
2022-10-04T04:19:27.646Z,91.7
2022-10-04T04:20:30.510Z,91.5
2022-10-04T04:21:34.262Z,91.6
2022-10-04T04:22:37.249Z,91.6
2022-10-04T04:23:40.377Z,91.6
2022-10-04T04:24:42.820Z,91.6
2022-10-04T04:25:46.591Z,91.7
2022-10-04T04:26:48.921Z,91.9
2022-10-04T04:27:52.597Z,91.6
2022-10-04T04:28:56.162Z,91.3
2022-10-04T04:29:59.359Z,91.5
2022-10-04T04:31:03.088Z,91.5
2022-10-04T04:32:06.259Z,91.2
2022-10-04T04:33:09.920Z,91.5
2022-10-04T04:34:12.796Z,92
2022-10-04T04:35:15.512Z,92.4
2022-10-04T04:36:18.305Z,92.2
2022-10-04T04:37:21.106Z,92.1
2022-10-04T04:38:23.346Z,92.7
2022-10-04T04:39:26.886Z,92.7
2022-10-04T04:40:30.346Z,93
2022-10-04T04:41:33.431Z,92.8
2022-10-04T04:42:35.676Z,92.7
2022-10-04T04:43:39.339Z,92.6
2022-10-04T04:44:42.604Z,92.3
2022-10-04T04:45:45.995Z,92.1
2022-10-04T04:47:30.021Z,91.8
2022-10-04T04:48:33.381Z,91.7
2022-10-04T04:49:36.194Z,91.6
2022-10-04T04:50:39.308Z,92
2022-10-04T04:51:43.961Z,92.3
2022-10-04T04:52:47.432Z,92.4
2022-10-04T04:53:50.707Z,92.2
2022-10-04T04:54:54.147Z,92.1
2022-10-04T04:56:13.463Z,91.8
2022-10-04T04:57:20.708Z,91.4
2022-10-04T04:58:23.297Z,91.3
2022-10-04T04:59:26.784Z,91.5
2022-10-04T05:00:30.584Z,91.6
2022-10-04T05:01:34.352Z,91.7
2022-10-04T05:02:38.056Z,92.1
2022-10-04T05:03:41.333Z,92.2
2022-10-04T05:04:44.506Z,92.4
2022-10-04T05:05:47.491Z,92.3
2022-10-04T05:06:50.832Z,92.5
2022-10-04T05:07:53.893Z,92.7
2022-10-04T05:08:56.407Z,92.8
2022-10-04T05:10:00.187Z,92.8
2022-10-04T05:11:02.342Z,92.9
2022-10-04T05:12:05.426Z,93.2
2022-10-04T05:13:08.808Z,93
2022-10-04T05:14:11.716Z,92.8
2022-10-04T05:15:16.815Z,93
2022-10-04T05:16:22.352Z,92.9
2022-10-04T05:17:26.196Z,92.8
2022-10-04T05:18:29.023Z,92.8
2022-10-04T05:19:32.398Z,92.9
2022-10-04T05:20:35.194Z,93.3
2022-10-04T05:21:44.650Z,93
2022-10-04T05:22:48.431Z,92.7
2022-10-04T05:23:51.302Z,92.4
2022-10-04T05:24:53.637Z,92.5
2022-10-04T05:25:56.645Z,92.5
2022-10-04T05:26:59.364Z,92.8
2022-10-04T05:28:03.287Z,92.5
2022-10-04T05:29:06.449Z,92.2
2022-10-04T05:30:09.913Z,92.1
2022-10-04T05:31:13.711Z,91.9
2022-10-04T05:32:17.150Z,92.2
2022-10-04T05:33:20.514Z,92.4
2022-10-04T05:34:23.152Z,92.3
2022-10-04T05:35:26.597Z,92
2022-10-04T05:36:30.050Z,92
2022-10-04T05:37:33.475Z,91.9
2022-10-04T05:38:36.610Z,91.8
2022-10-04T05:39:39.952Z,92
2022-10-04T05:40:42.750Z,92
2022-10-04T05:41:46.539Z,92
2022-10-04T05:42:49.272Z,91.7
2022-10-04T05:43:52.345Z,91.6
2022-10-04T05:44:55.528Z,92
2022-10-04T05:45:58.828Z,92.1
2022-10-04T05:47:02.608Z,92.1
2022-10-04T05:48:05.429Z,91.6
2022-10-04T05:49:08.591Z,91.4
2022-10-04T05:50:11.599Z,91.4
2022-10-04T05:51:15.022Z,91.5
2022-10-04T05:52:17.545Z,91.8
2022-10-04T05:53:20.965Z,91.7
2022-10-04T05:54:23.691Z,91.5
2022-10-04T05:55:27.215Z,91.3
2022-10-04T05:56:30.587Z,91
2022-10-04T05:57:33.158Z,90.9
2022-10-04T05:58:36.025Z,91.1
2022-10-04T05:59:39.755Z,91.1
2022-10-04T06:00:42.927Z,91
2022-10-04T06:01:48.301Z,91.1
2022-10-04T06:02:52.287Z,90.9
2022-10-04T06:03:55.343Z,90.7
2022-10-04T06:04:58.426Z,90.7
2022-10-04T06:06:00.911Z,90.9
2022-10-04T06:07:04.327Z,90.8
2022-10-04T06:08:08.330Z,90.8
2022-10-04T06:09:10.929Z,90.9
2022-10-04T06:10:13.450Z,90.9
2022-10-04T06:11:15.979Z,90.7
2022-10-04T06:12:18.579Z,90.3
2022-10-04T06:13:22.102Z,90.3
2022-10-04T06:14:25.280Z,90.4
2022-10-04T06:15:28.176Z,90.5
2022-10-04T06:16:31.662Z,90.4
2022-10-04T06:17:35.122Z,90.4
2022-10-04T06:18:38.907Z,90.2
2022-10-04T06:19:42.129Z,90
2022-10-04T06:20:45.436Z,89.9
2022-10-04T06:21:47.908Z,89.8
2022-10-04T06:22:51.701Z,89.8
2022-10-04T06:23:54.511Z,89.7
2022-10-04T06:24:57.689Z,89.7
2022-10-04T06:26:00.764Z,89.5
2022-10-04T06:27:03.276Z,89.4
2022-10-04T06:28:06.199Z,89.2
2022-10-04T06:29:09.204Z,89.3
2022-10-04T06:30:12.276Z,89.6
2022-10-04T06:31:15.412Z,89.6
2022-10-04T06:32:18.942Z,89.7
2022-10-04T06:33:22.486Z,89.6
2022-10-04T06:34:26.378Z,89.6
2022-10-04T06:35:30.080Z,89.7
2022-10-04T06:36:33.177Z,89.9
2022-10-04T06:37:36.111Z,89.6
2022-10-04T06:38:38.910Z,89.6
2022-10-04T06:39:41.704Z,89.5
2022-10-04T06:40:44.488Z,89.7
2022-10-04T06:41:47.671Z,89.8
2022-10-04T06:42:50.262Z,89.7
2022-10-04T06:43:53.363Z,89.5
2022-10-04T06:44:56.276Z,89.3
2022-10-04T06:46:00.260Z,89.3
2022-10-04T06:47:03.289Z,89.4
2022-10-04T06:48:06.387Z,89.4
2022-10-04T06:49:10.182Z,89.4
2022-10-04T06:50:13.651Z,89
2022-10-04T06:51:17.094Z,88.8
2022-10-04T06:52:19.993Z,89.1
2022-10-04T06:53:23.127Z,89.2
2022-10-04T06:54:26.594Z,89
2022-10-04T06:55:30.217Z,88.9
2022-10-04T06:56:32.983Z,88.9
2022-10-04T06:57:35.773Z,88.7
2022-10-04T06:58:38.850Z,88.8
2022-10-04T06:59:42.605Z,88.8
2022-10-04T07:00:45.497Z,88.7
2022-10-04T07:01:49.761Z,88.6
2022-10-04T07:02:53.052Z,88.6
2022-10-04T07:03:56.295Z,88.4
2022-10-04T07:05:15.141Z,88.5
2022-10-04T07:06:19.129Z,88.3
2022-10-04T07:07:22.211Z,88.2
2022-10-04T07:08:25.432Z,88.1
2022-10-04T07:09:28.874Z,88.3
2022-10-04T07:10:31.787Z,88.5
2022-10-04T07:11:35.192Z,88.1
2022-10-04T07:12:37.979Z,88.1
2022-10-04T07:13:41.327Z,88.4
2022-10-04T07:14:44.060Z,88.6
2022-10-04T07:15:46.624Z,88.8
2022-10-04T07:16:50.162Z,88.8
2022-10-04T07:17:52.960Z,88.6
2022-10-04T07:18:55.741Z,88.3
2022-10-04T07:19:59.476Z,88.1
2022-10-04T07:21:02.096Z,88
2022-10-04T07:22:05.494Z,88
2022-10-04T07:23:08.034Z,87.8
2022-10-04T07:24:11.787Z,87.8
2022-10-04T07:25:15.242Z,87.7
2022-10-04T07:26:18.691Z,87.8
2022-10-04T07:27:22.145Z,88.1
2022-10-04T07:28:24.900Z,88
2022-10-04T07:29:27.868Z,87.9
2022-10-04T07:30:31.596Z,87.9
2022-10-04T07:31:34.315Z,87.9
2022-10-04T07:32:38.129Z,88
2022-10-04T07:33:41.579Z,87.8
2022-10-04T07:34:44.531Z,87.7
2022-10-04T07:35:47.642Z,87.7
2022-10-04T07:36:50.224Z,87.3
2022-10-04T07:37:53.977Z,87
2022-10-04T07:38:57.632Z,86.9
2022-10-04T07:40:01.104Z,86.6
2022-10-04T07:41:04.820Z,86.8
2022-10-04T07:42:08.079Z,86.9
2022-10-04T07:43:11.238Z,87.1
2022-10-04T07:44:15.270Z,86.9
2022-10-04T07:45:18.262Z,86.9
2022-10-04T07:46:22.033Z,86.9
2022-10-04T07:47:25.273Z,87.1
2022-10-04T07:48:28.394Z,87.2
2022-10-04T07:49:31.263Z,87
2022-10-04T07:50:33.958Z,86.9
2022-10-04T07:51:36.483Z,86.8
2022-10-04T07:52:39.836Z,86.5
2022-10-04T07:53:43.341Z,86.7
2022-10-04T07:54:46.691Z,86.6
2022-10-04T07:55:49.847Z,86.5
2022-10-04T07:56:53.202Z,86.7
2022-10-04T07:57:56.266Z,86.9
2022-10-04T07:58:59.408Z,86.4
2022-10-04T08:00:02.784Z,86.7
2022-10-04T08:01:05.866Z,86.6
2022-10-04T08:02:09.677Z,86.6
2022-10-04T08:03:14.048Z,86.6
2022-10-04T08:04:17.486Z,86.6
2022-10-04T08:05:21.221Z,86.5
2022-10-04T08:06:24.674Z,86.4
2022-10-04T08:07:28.339Z,85.9
2022-10-04T08:08:31.800Z,86.1
2022-10-04T08:09:35.197Z,86
2022-10-04T08:10:38.732Z,86.1
2022-10-04T08:11:43.011Z,86
2022-10-04T08:12:46.894Z,85.8
2022-10-04T08:13:49.694Z,85.6
2022-10-04T08:14:51.852Z,86.2
2022-10-04T08:15:55.494Z,85.8
2022-10-04T08:16:58.233Z,85.5
2022-10-04T08:18:01.372Z,85.3
2022-10-04T08:19:05.017Z,85.8
2022-10-04T08:20:07.470Z,85.6
2022-10-04T08:21:10.349Z,85.4
2022-10-04T08:22:13.702Z,85.3
2022-10-04T08:23:17.526Z,85.8
2022-10-04T08:24:20.688Z,85.4
2022-10-04T08:25:23.895Z,85.1
2022-10-04T08:26:27.074Z,84.8
2022-10-04T08:27:30.376Z,84.7
2022-10-04T08:28:34.017Z,85.1
2022-10-04T08:29:36.657Z,85.5
2022-10-04T08:30:40.720Z,85.1
2022-10-04T08:31:44.915Z,85
2022-10-04T08:32:48.371Z,85.1
2022-10-04T08:33:51.464Z,84.9
2022-10-04T08:34:55.007Z,84.8
2022-10-04T08:35:58.727Z,84.7
2022-10-04T08:37:01.809Z,84.7
2022-10-04T08:38:05.614Z,85.2
2022-10-04T08:39:09.044Z,85.5
2022-10-04T08:40:14.900Z,85
2022-10-04T08:41:19.180Z,84.6
2022-10-04T08:42:22.337Z,84.6
2022-10-04T08:43:26.572Z,84.4
2022-10-04T08:44:30.277Z,84.4
2022-10-04T08:45:33.159Z,84.1
2022-10-04T08:46:36.336Z,84.1
2022-10-04T08:47:39.633Z,84.4
2022-10-04T08:48:42.990Z,84.5
2022-10-04T08:49:45.823Z,84.1
2022-10-04T08:50:49.263Z,84.4
2022-10-04T08:51:52.481Z,84.2
2022-10-04T08:52:55.080Z,84.4
2022-10-04T08:53:57.900Z,84
2022-10-04T08:55:01.377Z,83.8
2022-10-04T08:56:04.565Z,83.7
2022-10-04T08:57:16.740Z,83.2
2022-10-04T08:58:20.753Z,83.8
2022-10-04T08:59:23.579Z,83
2022-10-04T09:00:27.040Z,83.9
2022-10-04T09:01:30.453Z,83
2022-10-04T09:02:33.698Z,82.5
2022-10-04T09:03:37.542Z,82.5
2022-10-04T09:04:40.717Z,83.2
2022-10-04T09:05:43.604Z,82.5
2022-10-04T09:06:47.491Z,82.8
2022-10-04T09:07:50.032Z,82.2
2022-10-04T09:08:52.833Z,82.7
2022-10-04T09:09:56.107Z,82.5
2022-10-04T09:10:58.992Z,82
2022-10-04T09:12:01.237Z,82
2022-10-04T09:13:04.712Z,81.8
2022-10-04T09:14:08.326Z,81.7
2022-10-04T09:15:11.509Z,81.7
2022-10-04T09:16:15.074Z,81.3
2022-10-04T09:17:24.080Z,81.3
2022-10-04T09:18:27.069Z,80.7
2022-10-04T09:19:29.787Z,80.5
2022-10-04T09:20:41.559Z,80.7
2022-10-04T09:21:44.704Z,80.5
2022-10-04T09:22:48.031Z,80.6
2022-10-04T09:23:51.705Z,80.4
2022-10-04T09:24:54.585Z,81.2
2022-10-04T09:25:57.370Z,80.8
2022-10-04T09:27:00.280Z,80.7
2022-10-04T09:28:03.415Z,80.5
2022-10-04T09:29:07.605Z,80.7
2022-10-04T09:30:10.596Z,80.9
2022-10-04T09:31:14.033Z,80.7
2022-10-04T09:32:18.049Z,80.5
2022-10-04T09:33:20.862Z,80
2022-10-04T09:34:24.014Z,79.8
2022-10-04T09:35:27.354Z,80.2
2022-10-04T09:36:29.794Z,80.2
2022-10-04T09:37:33.260Z,79.8
2022-10-04T09:38:36.533Z,79.8
2022-10-04T09:39:39.346Z,79.8
2022-10-04T09:40:48.453Z,79.5
2022-10-04T09:41:51.516Z,79.9
2022-10-04T09:42:54.692Z,79.7
2022-10-04T09:43:58.420Z,79.8
2022-10-04T09:45:01.892Z,79.2
2022-10-04T09:46:05.678Z,79.7
2022-10-04T09:47:09.718Z,79.4
2022-10-04T09:48:13.213Z,78.9
2022-10-04T09:49:16.687Z,78.9
2022-10-04T09:50:20.024Z,79
2022-10-04T09:51:22.973Z,78.7
2022-10-04T09:52:26.127Z,78.7
2022-10-04T09:53:29.503Z,78.6
2022-10-04T09:54:32.569Z,78.1
2022-10-04T09:55:35.844Z,78.1
2022-10-04T09:56:39.343Z,78.2
2022-10-04T09:57:42.881Z,77.9
2022-10-04T09:58:46.752Z,77.7
2022-10-04T09:59:49.536Z,77.4
2022-10-04T10:00:53.329Z,77.2
2022-10-04T10:01:56.632Z,76.6
2022-10-04T10:03:00.378Z,76.8
2022-10-04T10:04:04.385Z,77.6
2022-10-04T10:05:08.211Z,76
2022-10-04T10:06:11.367Z,76.1
2022-10-04T10:07:14.795Z,75.1
2022-10-04T10:08:17.704Z,76.2
2022-10-04T10:09:20.779Z,76.5
2022-10-04T10:10:23.773Z,76
2022-10-04T10:11:27.476Z,75.4
2022-10-04T10:12:30.941Z,75.6
2022-10-04T10:13:33.565Z,75.5
2022-10-04T10:14:36.851Z,76.4
2022-10-04T10:15:40.231Z,75.8
2022-10-04T10:16:45.060Z,74.9
2022-10-04T10:17:50.126Z,74.7
2022-10-04T10:18:53.723Z,74.8
2022-10-04T10:19:56.797Z,75.1
2022-10-04T10:21:00.485Z,73.8
2022-10-04T10:22:03.537Z,74
2022-10-04T10:23:06.920Z,73.5
2022-10-04T10:24:09.912Z,74
2022-10-04T10:25:13.263Z,73.4
2022-10-04T10:26:16.373Z,73.8
2022-10-04T10:27:18.841Z,74.3
2022-10-04T10:28:22.592Z,74.5
2022-10-04T10:29:25.883Z,74.4
2022-10-04T10:30:28.995Z,73.1
2022-10-04T10:31:32.919Z,73.3
2022-10-04T10:32:36.488Z,73.4
2022-10-04T10:33:39.210Z,73.4
2022-10-04T10:34:41.877Z,72.5
2022-10-04T10:35:45.367Z,72.7
2022-10-04T10:36:49.386Z,72.2
2022-10-04T10:37:52.563Z,72.5
2022-10-04T10:38:55.148Z,72.2
2022-10-04T10:39:58.385Z,72.2
2022-10-04T10:41:00.939Z,72.5
2022-10-04T10:42:04.207Z,72.6
2022-10-04T10:43:07.115Z,71
2022-10-04T10:44:10.186Z,71
2022-10-04T10:45:12.698Z,71.4
2022-10-04T10:46:16.523Z,71.1
2022-10-04T10:47:20.420Z,70.3
2022-10-04T10:48:23.921Z,69.8
2022-10-04T10:49:27.102Z,69.5
2022-10-04T10:50:30.683Z,69.4
2022-10-04T10:51:33.470Z,68.8
2022-10-04T10:52:35.993Z,67.8
2022-10-04T10:53:39.441Z,67.9
2022-10-04T10:54:42.252Z,68.4
2022-10-04T10:55:45.312Z,68.4
2022-10-04T10:56:48.615Z,67.3
2022-10-04T10:57:52.406Z,67.2
2022-10-04T10:58:56.148Z,68.3
2022-10-04T10:59:59.222Z,66.8
2022-10-04T11:01:02.688Z,65.6
2022-10-04T11:02:06.186Z,65.9
2022-10-04T11:03:27.236Z,66
2022-10-04T11:04:35.914Z,65.8
2022-10-04T11:05:39.625Z,66.7
2022-10-04T11:06:43.292Z,65.1
2022-10-04T11:07:47.079Z,64.6
2022-10-04T11:08:49.597Z,65.1
2022-10-04T11:09:52.263Z,64.8
2022-10-04T11:10:55.442Z,65
2022-10-04T11:11:57.984Z,65.1
2022-10-04T11:13:01.426Z,64.7
2022-10-04T11:14:04.721Z,65.1
2022-10-04T11:15:07.618Z,64.9
2022-10-04T11:16:11.406Z,64.5
2022-10-04T11:17:14.356Z,64.4
2022-10-04T11:18:17.067Z,63.7
2022-10-04T11:19:20.491Z,62.9
2022-10-04T11:20:23.899Z,63.9
2022-10-04T11:21:27.101Z,63.6
2022-10-04T11:22:38.852Z,64.2
2022-10-04T11:23:41.639Z,63.6
2022-10-04T11:24:45.332Z,62.9
2022-10-04T11:25:48.427Z,61.9
2022-10-04T11:26:51.023Z,62.1
2022-10-04T11:27:58.864Z,62.5
2022-10-04T11:29:02.054Z,62
2022-10-04T11:30:05.503Z,63
2022-10-04T11:31:08.845Z,62.8
2022-10-04T11:32:11.771Z,62.6
2022-10-04T11:33:14.868Z,59.8
2022-10-04T11:34:18.321Z,60.6
2022-10-04T11:35:20.639Z,60.5
2022-10-04T11:36:23.594Z,58.8
2022-10-04T11:37:27.514Z,57.8
2022-10-04T11:38:31.029Z,55.8
2022-10-04T11:39:34.092Z,56.8
2022-10-04T11:40:37.434Z,57.5
2022-10-04T11:41:40.260Z,57.5
2022-10-04T11:42:43.694Z,57
2022-10-04T11:43:46.663Z,58.5
2022-10-04T11:44:49.842Z,59
2022-10-04T11:45:53.025Z,59.1
2022-10-04T11:46:56.853Z,58.8
2022-10-04T11:48:00.608Z,59.5
2022-10-04T11:49:04.077Z,59.3
2022-10-04T11:50:06.950Z,58.2
2022-10-04T11:51:10.186Z,57.1
2022-10-04T11:52:14.239Z,56.8
2022-10-04T11:53:17.391Z,57.2
2022-10-04T11:54:19.913Z,57
2022-10-04T11:55:23.635Z,56
2022-10-04T11:56:26.807Z,54.4
2022-10-04T11:57:30.536Z,54.9
2022-10-04T11:58:33.606Z,55.4
2022-10-04T11:59:37.616Z,54
2022-10-04T12:00:40.573Z,53.3
2022-10-04T12:01:43.663Z,53.4
2022-10-04T12:02:47.291Z,53.4
2022-10-04T12:03:51.653Z,55.1
2022-10-04T12:04:55.172Z,54.6
2022-10-04T12:05:58.398Z,54.2
2022-10-04T12:07:01.745Z,53.2
2022-10-04T12:08:05.532Z,52.7
2022-10-04T12:09:09.335Z,52.2
2022-10-04T12:10:12.769Z,50.9
2022-10-04T12:11:15.849Z,52.3
2022-10-04T12:12:19.134Z,51.6
2022-10-04T12:13:21.844Z,51.3
2022-10-04T12:14:24.704Z,51.4
2022-10-04T12:15:27.849Z,52.8
2022-10-04T12:16:31.804Z,52
2022-10-04T12:17:35.016Z,51.4
2022-10-04T12:18:37.820Z,49.2
2022-10-04T12:19:40.976Z,49.7
2022-10-04T12:20:44.736Z,49.4
2022-10-04T12:21:47.931Z,47.4
2022-10-04T12:22:50.646Z,46
2022-10-04T12:23:53.497Z,45.3
2022-10-04T12:24:56.836Z,44
2022-10-04T12:26:00.574Z,45.1
2022-10-04T12:27:03.444Z,44.6
2022-10-04T12:28:06.810Z,44.6
2022-10-04T12:29:09.194Z,46.7
2022-10-04T12:30:12.622Z,47.4
2022-10-04T12:31:16.480Z,48.8
2022-10-04T12:32:19.742Z,50.8
2022-10-04T12:33:22.586Z,51.5
2022-10-04T12:34:25.606Z,51.5
2022-10-04T12:35:28.762Z,52.6
2022-10-04T12:36:32.439Z,53.8
2022-10-04T12:37:35.149Z,53.5
2022-10-04T12:38:38.856Z,53.1
2022-10-04T12:39:42.192Z,52.7
2022-10-04T12:40:45.711Z,52.5
2022-10-04T12:41:49.446Z,52.7
2022-10-04T12:42:53.178Z,53.3
2022-10-04T12:43:56.995Z,53.5
2022-10-04T12:45:00.448Z,53
2022-10-04T12:46:02.993Z,53.4
2022-10-04T12:47:06.021Z,52.8
2022-10-04T12:48:09.182Z,52.9
2022-10-04T12:49:12.405Z,53.4
2022-10-04T12:50:14.846Z,54.8
2022-10-04T12:51:18.059Z,55
2022-10-04T12:52:20.612Z,55.3
2022-10-04T12:53:23.403Z,54.6
2022-10-04T12:54:26.856Z,54.6
2022-10-04T12:55:30.502Z,54.3
2022-10-04T12:56:33.301Z,54.3
2022-10-04T12:57:36.917Z,55.5
2022-10-04T12:58:40.294Z,55.9
2022-10-04T12:59:42.975Z,55
2022-10-04T13:00:47.285Z,54.3
2022-10-04T13:01:50.159Z,54.3
2022-10-04T13:02:53.472Z,55
2022-10-04T13:03:56.188Z,55.2
2022-10-04T13:04:58.844Z,55.4
2022-10-04T13:06:01.636Z,54.2
2022-10-04T13:07:04.440Z,54.9
2022-10-04T13:08:07.520Z,53.8
2022-10-04T13:09:10.871Z,55.1
2022-10-04T13:10:26.959Z,56
2022-10-04T13:11:30.586Z,55.1
2022-10-04T13:12:33.755Z,55.7
2022-10-04T13:13:37.209Z,53.8
2022-10-04T13:14:40.356Z,53.7
2022-10-04T13:17:27.017Z,53.6
2022-10-04T13:18:39.091Z,52.7
2022-10-04T13:19:41.991Z,53.3
2022-10-04T13:20:45.407Z,54
2022-10-04T13:21:49.130Z,54.2
2022-10-04T13:22:59.206Z,54.6
2022-10-04T13:24:02.694Z,53.6
2022-10-04T13:25:05.612Z,54.7
2022-10-04T13:26:08.502Z,54.4
2022-10-04T13:27:11.661Z,54.2
2022-10-04T13:28:15.072Z,53.9
2022-10-04T13:29:18.149Z,53.6
2022-10-04T13:30:21.096Z,53.9
2022-10-04T13:31:24.540Z,54.7
2022-10-04T13:32:28.592Z,54.6
2022-10-04T13:33:32.333Z,54.7
2022-10-04T13:34:35.538Z,54.9
2022-10-04T13:35:38.798Z,55.8
2022-10-04T13:36:41.712Z,55
2022-10-04T13:37:45.141Z,55.6
2022-10-04T13:38:47.858Z,55.3
2022-10-04T13:39:51.324Z,56.2
2022-10-04T13:40:54.208Z,56.3
2022-10-04T13:41:56.443Z,56.8
2022-10-04T13:42:59.617Z,55.9
2022-10-04T13:44:01.884Z,54.9
2022-10-04T13:45:05.218Z,55.2
2022-10-04T13:46:08.616Z,55.5
2022-10-04T13:47:11.664Z,55.4
2022-10-04T13:48:22.757Z,55.2
2022-10-04T13:49:26.232Z,55.2
2022-10-04T13:50:29.138Z,55.6
2022-10-04T13:51:32.489Z,54.9
2022-10-04T13:52:35.584Z,56.5
2022-10-04T13:53:39.332Z,56.8
2022-10-04T13:54:42.329Z,56
2022-10-04T13:55:45.368Z,56
2022-10-04T13:56:48.803Z,56.5
2022-10-04T13:57:51.513Z,56.5
2022-10-04T13:58:54.630Z,56.5
2022-10-04T13:59:57.828Z,55.9
2022-10-04T14:01:01.313Z,55.6
2022-10-04T14:02:04.901Z,55.4
2022-10-04T14:03:08.601Z,55.7
2022-10-04T14:04:11.951Z,55.8
2022-10-04T14:05:14.746Z,56.1
2022-10-04T14:06:17.814Z,56.3
2022-10-04T14:07:20.620Z,57.5
2022-10-04T14:08:24.191Z,57.2
2022-10-04T14:09:27.910Z,58.5
2022-10-04T14:10:30.973Z,57.9
2022-10-04T14:11:34.230Z,59.1
2022-10-04T14:12:37.319Z,59.9